AFR617 KMIA-TFFR
Flight info
| Callsign | AFR617 |
|---|---|
| Flight time | 2h 44m |
| Altitude | 37000 |
| Route | KLADA2 BITAC Y290 HAGIT Y421 MEEGL DCT MODUX/N0372F230 R888 GORET GORET2A |
| Aircraft | A320/M-SDE3FGHIRWY/LB1 |
Departure
| Time | 2026-05-08 22:21 |
|---|---|
| Airport | Miami International Airport (KMIA) |
Arrival
| Time | 2026-05-09 01:05 |
|---|---|
| Airport | Maryse Condé International Airport (TFFR) |
| Time | Latitude | Longitude | Altitude | Speed | Heading |
|---|---|---|---|---|---|
| 2026-05-08 21:42 | 25.79245 | -80.27301 | 17 ft | 0 kts | 271° |
| 2026-05-08 22:10 | 25.79245 | -80.27277 | 19 ft | 4 kts | 264° |
| 2026-05-08 22:10 | 25.79251 | -80.27249 | 17 ft | 4 kts | 240° |
| 2026-05-08 22:10 | 25.79267 | -80.27232 | 17 ft | 2 kts | 179° |
| 2026-05-08 22:11 | 25.79270 | -80.27232 | 17 ft | 0 kts | 177° |
| 2026-05-08 22:12 | 25.79246 | -80.27230 | 18 ft | 10 kts | 174° |
| 2026-05-08 22:13 | 25.79136 | -80.27223 | 17 ft | 19 kts | 178° |
| 2026-05-08 22:13 | 25.78999 | -80.27221 | 15 ft | 20 kts | 197° |
| 2026-05-08 22:13 | 25.78937 | -80.27290 | 15 ft | 9 kts | 242° |
| 2026-05-08 22:13 | 25.78926 | -80.27345 | 16 ft | 6 kts | 267° |
| 2026-05-08 22:14 | 25.78926 | -80.27369 | 16 ft | 0 kts | 269° |
| 2026-05-08 22:15 | 25.78887 | -80.27647 | 18 ft | 24 kts | 260° |
| 2026-05-08 22:15 | 25.78881 | -80.27823 | 19 ft | 20 kts | 289° |
| 2026-05-08 22:16 | 25.78948 | -80.27942 | 22 ft | 17 kts | 300° |
| 2026-05-08 22:16 | 25.78988 | -80.28084 | 22 ft | 24 kts | 264° |
| 2026-05-08 22:16 | 25.78972 | -80.28270 | 19 ft | 24 kts | 265° |
| 2026-05-08 22:16 | 25.78963 | -80.28467 | 19 ft | 31 kts | 267° |
| 2026-05-08 22:17 | 25.78954 | -80.28716 | 14 ft | 33 kts | 269° |
| 2026-05-08 22:17 | 25.78925 | -80.28963 | 18 ft | 32 kts | 254° |
| 2026-05-08 22:17 | 25.78902 | -80.29205 | 15 ft | 32 kts | 268° |
| 2026-05-08 22:17 | 25.78893 | -80.29447 | 20 ft | 30 kts | 266° |
| 2026-05-08 22:18 | 25.78879 | -80.29684 | 19 ft | 32 kts | 267° |
| 2026-05-08 22:18 | 25.78870 | -80.29905 | 21 ft | 26 kts | 269° |
| 2026-05-08 22:18 | 25.78861 | -80.30099 | 19 ft | 25 kts | 266° |
| 2026-05-08 22:18 | 25.78849 | -80.30287 | 17 ft | 24 kts | 268° |
| 2026-05-08 22:19 | 25.78845 | -80.30461 | 18 ft | 23 kts | 268° |
| 2026-05-08 22:19 | 25.78835 | -80.30673 | 15 ft | 30 kts | 266° |
| 2026-05-08 22:19 | 25.78827 | -80.30903 | 17 ft | 30 kts | 270° |
| 2026-05-08 22:19 | 25.78818 | -80.31134 | 17 ft | 30 kts | 267° |
| 2026-05-08 22:20 | 25.78813 | -80.31350 | 19 ft | 26 kts | 268° |
| 2026-05-08 22:20 | 25.78738 | -80.31474 | 17 ft | 21 kts | 184° |
| 2026-05-08 22:20 | 25.78619 | -80.31420 | 15 ft | 20 kts | 93° |
| 2026-05-08 22:20 | 25.78625 | -80.31233 | 19 ft | 45 kts | 87° |
| 2026-05-08 22:21 | 25.78650 | -80.30628 | 20 ft | 109 kts | 87° |
| 2026-05-08 22:21 | 25.78694 | -80.29591 | 19 ft | 157 kts | 87° |
| 2026-05-08 22:21 | 25.78759 | -80.28303 | 411 ft | 171 kts | 89° |
| 2026-05-08 22:21 | 25.78713 | -80.26972 | 1071 ft | 174 kts | 103° |
| 2026-05-08 22:22 | 25.78505 | -80.25640 | 1745 ft | 178 kts | 101° |
| 2026-05-08 22:22 | 25.78246 | -80.24239 | 2058 ft | 195 kts | 104° |
| 2026-05-08 22:22 | 25.77906 | -80.22690 | 2274 ft | 220 kts | 104° |
| 2026-05-08 22:22 | 25.77517 | -80.20974 | 2612 ft | 244 kts | 104° |
| 2026-05-08 22:23 | 25.77086 | -80.19066 | 3066 ft | 264 kts | 104° |
| 2026-05-08 22:23 | 25.76379 | -80.17145 | 3743 ft | 274 kts | 120° |
| 2026-05-08 22:23 | 25.75441 | -80.15278 | 4510 ft | 280 kts | 119° |
| 2026-05-08 22:23 | 25.74489 | -80.13366 | 5300 ft | 285 kts | 119° |
| 2026-05-08 22:24 | 25.73540 | -80.11435 | 6187 ft | 285 kts | 117° |
| 2026-05-08 22:24 | 25.72804 | -80.09386 | 7016 ft | 286 kts | 110° |
| 2026-05-08 22:24 | 25.72121 | -80.07304 | 7797 ft | 288 kts | 111° |
| 2026-05-08 22:24 | 25.71431 | -80.05211 | 8573 ft | 290 kts | 111° |
| 2026-05-08 22:25 | 25.70733 | -80.03103 | 9352 ft | 292 kts | 111° |
| 2026-05-08 22:25 | 25.70031 | -80.00986 | 10079 ft | 295 kts | 111° |
| 2026-05-08 22:25 | 25.69300 | -79.98787 | 10397 ft | 314 kts | 112° |
| 2026-05-08 22:25 | 25.68518 | -79.96436 | 10607 ft | 334 kts | 111° |
| 2026-05-08 22:26 | 25.67704 | -79.93990 | 11104 ft | 342 kts | 111° |
| 2026-05-08 22:26 | 25.66874 | -79.91494 | 11702 ft | 347 kts | 111° |
| 2026-05-08 22:26 | 25.66032 | -79.88965 | 12291 ft | 352 kts | 111° |
| 2026-05-08 22:26 | 25.65176 | -79.86401 | 12884 ft | 357 kts | 111° |
| 2026-05-08 22:27 | 25.64311 | -79.83807 | 13485 ft | 361 kts | 111° |
| 2026-05-08 22:27 | 25.63439 | -79.81184 | 14038 ft | 365 kts | 111° |
| 2026-05-08 22:27 | 25.62558 | -79.78529 | 14570 ft | 369 kts | 110° |
| 2026-05-08 22:27 | 25.61668 | -79.75850 | 15102 ft | 372 kts | 110° |
| 2026-05-08 22:28 | 25.60770 | -79.73151 | 15638 ft | 375 kts | 110° |
| 2026-05-08 22:28 | 25.59861 | -79.70426 | 16161 ft | 379 kts | 110° |
| 2026-05-08 22:28 | 25.58921 | -79.67678 | 16694 ft | 383 kts | 111° |
| 2026-05-08 22:28 | 25.57945 | -79.64960 | 17207 ft | 387 kts | 112° |
| 2026-05-08 22:29 | 25.56925 | -79.62195 | 17724 ft | 390 kts | 112° |
| 2026-05-08 22:29 | 25.55885 | -79.59399 | 18241 ft | 394 kts | 112° |
| 2026-05-08 22:29 | 25.54836 | -79.56579 | 18685 ft | 398 kts | 112° |
| 2026-05-08 22:29 | 25.53783 | -79.53730 | 19116 ft | 402 kts | 112° |
| 2026-05-08 22:30 | 25.52724 | -79.50855 | 19551 ft | 406 kts | 112° |
| 2026-05-08 22:30 | 25.51655 | -79.47949 | 19976 ft | 410 kts | 112° |
| 2026-05-08 22:30 | 25.50575 | -79.45013 | 20404 ft | 413 kts | 112° |
| 2026-05-08 22:30 | 25.49488 | -79.42053 | 20821 ft | 417 kts | 112° |
| 2026-05-08 22:31 | 25.48392 | -79.39063 | 21226 ft | 421 kts | 112° |
| 2026-05-08 22:31 | 25.47288 | -79.36049 | 21635 ft | 424 kts | 112° |
| 2026-05-08 22:31 | 25.46173 | -79.33011 | 22033 ft | 428 kts | 113° |
| 2026-05-08 22:31 | 25.45046 | -79.29946 | 22432 ft | 432 kts | 113° |
| 2026-05-08 22:32 | 25.43910 | -79.26860 | 22833 ft | 435 kts | 113° |
| 2026-05-08 22:32 | 25.42763 | -79.23741 | 23225 ft | 439 kts | 113° |
| 2026-05-08 22:32 | 25.41609 | -79.20605 | 23604 ft | 442 kts | 113° |
| 2026-05-08 22:32 | 25.40444 | -79.17443 | 23922 ft | 445 kts | 113° |
| 2026-05-08 22:33 | 25.39268 | -79.14262 | 24262 ft | 448 kts | 113° |
| 2026-05-08 22:33 | 25.38086 | -79.11069 | 24599 ft | 450 kts | 113° |
| 2026-05-08 22:33 | 25.36895 | -79.07854 | 24932 ft | 452 kts | 113° |
| 2026-05-08 22:33 | 25.35699 | -79.04624 | 25267 ft | 454 kts | 113° |
| 2026-05-08 22:34 | 25.34500 | -79.01386 | 25608 ft | 457 kts | 113° |
| 2026-05-08 22:34 | 25.33308 | -78.98172 | 25933 ft | 459 kts | 112° |
| 2026-05-08 22:34 | 25.32079 | -78.94860 | 26256 ft | 461 kts | 112° |
| 2026-05-08 22:34 | 25.30876 | -78.91620 | 26582 ft | 463 kts | 112° |
| 2026-05-08 22:35 | 25.29650 | -78.88315 | 26890 ft | 465 kts | 112° |
| 2026-05-08 22:35 | 25.28419 | -78.85000 | 27212 ft | 468 kts | 112° |
| 2026-05-08 22:35 | 25.27180 | -78.81679 | 27517 ft | 470 kts | 112° |
| 2026-05-08 22:35 | 25.25928 | -78.78334 | 27838 ft | 472 kts | 112° |
| 2026-05-08 22:36 | 25.24664 | -78.74953 | 28145 ft | 474 kts | 112° |
| 2026-05-08 22:36 | 25.23417 | -78.71608 | 28455 ft | 476 kts | 112° |
| 2026-05-08 22:36 | 25.22142 | -78.68184 | 28768 ft | 478 kts | 112° |
| 2026-05-08 22:36 | 25.20885 | -78.64818 | 29054 ft | 480 kts | 112° |
| 2026-05-08 22:37 | 25.19590 | -78.61357 | 29355 ft | 482 kts | 112° |
| 2026-05-08 22:37 | 25.18319 | -78.57965 | 29645 ft | 485 kts | 112° |
| 2026-05-08 22:37 | 25.16999 | -78.54524 | 29931 ft | 487 kts | 113° |
| 2026-05-08 22:37 | 25.15631 | -78.51115 | 30184 ft | 489 kts | 114° |
| 2026-05-08 22:38 | 25.14217 | -78.47700 | 30419 ft | 490 kts | 115° |
| 2026-05-08 22:38 | 25.12771 | -78.44258 | 30655 ft | 492 kts | 115° |
| 2026-05-08 22:38 | 25.11328 | -78.40823 | 30891 ft | 493 kts | 115° |
| 2026-05-08 22:38 | 25.09899 | -78.37396 | 31121 ft | 495 kts | 115° |
| 2026-05-08 22:39 | 25.08476 | -78.33955 | 31416 ft | 494 kts | 114° |
| 2026-05-08 22:39 | 25.07048 | -78.30482 | 31774 ft | 493 kts | 114° |
| 2026-05-08 22:39 | 25.05651 | -78.27075 | 32111 ft | 492 kts | 114° |
| 2026-05-08 22:39 | 25.04241 | -78.23641 | 32436 ft | 491 kts | 114° |
| 2026-05-08 22:40 | 25.02831 | -78.20213 | 32777 ft | 490 kts | 114° |
| 2026-05-08 22:40 | 25.01419 | -78.16791 | 33107 ft | 489 kts | 114° |
| 2026-05-08 22:40 | 25.00013 | -78.13386 | 33446 ft | 489 kts | 114° |
| 2026-05-08 22:40 | 24.98604 | -78.09976 | 33769 ft | 488 kts | 114° |
| 2026-05-08 22:41 | 24.97198 | -78.06576 | 34102 ft | 487 kts | 114° |
| 2026-05-08 22:41 | 24.95793 | -78.03179 | 34397 ft | 486 kts | 114° |
| 2026-05-08 22:41 | 24.94390 | -77.99789 | 34691 ft | 485 kts | 114° |
| 2026-05-08 22:41 | 24.92990 | -77.96407 | 34960 ft | 485 kts | 114° |
| 2026-05-08 22:42 | 24.91591 | -77.93034 | 35224 ft | 484 kts | 114° |
| 2026-05-08 22:42 | 24.90189 | -77.89661 | 35477 ft | 483 kts | 114° |
| 2026-05-08 22:42 | 24.88791 | -77.86300 | 35726 ft | 482 kts | 114° |
| 2026-05-08 22:42 | 24.87393 | -77.82940 | 35974 ft | 482 kts | 114° |
| 2026-05-08 22:43 | 24.85997 | -77.79590 | 36214 ft | 481 kts | 114° |
| 2026-05-08 22:43 | 24.84605 | -77.76248 | 36447 ft | 480 kts | 114° |
| 2026-05-08 22:43 | 24.83214 | -77.72908 | 36687 ft | 480 kts | 114° |
| 2026-05-08 22:43 | 24.81821 | -77.69570 | 36905 ft | 479 kts | 114° |
| 2026-05-08 22:44 | 24.80426 | -77.66230 | 37001 ft | 481 kts | 114° |
| 2026-05-08 22:44 | 24.77605 | -77.59485 | 37019 ft | 490 kts | 114° |
| 2026-05-08 22:45 | 24.74744 | -77.52666 | 37020 ft | 498 kts | 115° |
| 2026-05-08 22:45 | 24.71680 | -77.45797 | 37018 ft | 501 kts | 116° |
| 2026-05-08 22:46 | 24.68496 | -77.38972 | 37017 ft | 501 kts | 117° |
| 2026-05-08 22:46 | 24.65323 | -77.32150 | 37017 ft | 501 kts | 116° |
| 2026-05-08 22:47 | 24.62192 | -77.25312 | 37014 ft | 501 kts | 116° |
| 2026-05-08 22:47 | 24.59070 | -77.18460 | 37019 ft | 501 kts | 116° |
| 2026-05-08 22:48 | 24.55937 | -77.11623 | 37026 ft | 501 kts | 116° |
| 2026-05-08 22:48 | 24.52788 | -77.04793 | 37028 ft | 501 kts | 116° |
| 2026-05-08 22:49 | 24.49639 | -76.97976 | 37031 ft | 501 kts | 116° |
| 2026-05-08 22:49 | 24.44920 | -76.87747 | 37037 ft | 500 kts | 116° |
| 2026-05-08 22:50 | 24.41775 | -76.80935 | 37039 ft | 500 kts | 116° |
| 2026-05-08 22:50 | 24.38620 | -76.74138 | 37036 ft | 500 kts | 116° |
| 2026-05-08 22:51 | 24.35452 | -76.67316 | 37040 ft | 500 kts | 116° |
| 2026-05-08 22:51 | 24.32302 | -76.60533 | 37036 ft | 499 kts | 116° |
| 2026-05-08 22:52 | 24.29152 | -76.53756 | 37042 ft | 499 kts | 116° |
| 2026-05-08 22:52 | 24.26016 | -76.47017 | 37043 ft | 499 kts | 116° |
| 2026-05-08 22:53 | 24.22842 | -76.40215 | 37043 ft | 498 kts | 116° |
| 2026-05-08 22:53 | 24.19686 | -76.33471 | 37041 ft | 498 kts | 116° |
| 2026-05-08 22:54 | 24.16519 | -76.26710 | 37040 ft | 498 kts | 116° |
| 2026-05-08 22:54 | 24.13383 | -76.19997 | 37043 ft | 498 kts | 116° |
| 2026-05-08 22:55 | 24.10227 | -76.13268 | 37043 ft | 497 kts | 116° |
| 2026-05-08 22:55 | 24.07044 | -76.06503 | 37043 ft | 497 kts | 116° |
| 2026-05-08 22:56 | 24.03896 | -75.99818 | 37044 ft | 497 kts | 116° |
| 2026-05-08 22:56 | 24.00722 | -75.93096 | 37037 ft | 496 kts | 116° |
| 2026-05-08 22:57 | 23.98082 | -75.87498 | 37040 ft | 496 kts | 116° |
| 2026-05-08 22:57 | 23.94918 | -75.80791 | 37037 ft | 496 kts | 116° |
| 2026-05-08 22:58 | 23.91772 | -75.74124 | 37048 ft | 496 kts | 116° |
| 2026-05-08 22:58 | 23.88596 | -75.67429 | 37038 ft | 495 kts | 116° |
| 2026-05-08 22:59 | 23.85420 | -75.60745 | 37043 ft | 495 kts | 116° |
| 2026-05-08 22:59 | 23.82254 | -75.54081 | 37041 ft | 495 kts | 116° |
| 2026-05-08 23:00 | 23.79078 | -75.47428 | 37034 ft | 494 kts | 116° |
| 2026-05-08 23:00 | 23.75895 | -75.40743 | 37038 ft | 494 kts | 116° |
| 2026-05-08 23:01 | 23.72730 | -75.34095 | 37035 ft | 494 kts | 116° |
| 2026-05-08 23:01 | 23.69573 | -75.27482 | 37036 ft | 494 kts | 116° |
| 2026-05-08 23:02 | 23.66383 | -75.20826 | 37052 ft | 494 kts | 116° |
| 2026-05-08 23:02 | 23.63200 | -75.14172 | 37044 ft | 494 kts | 116° |
| 2026-05-08 23:03 | 23.60025 | -75.07543 | 37042 ft | 493 kts | 116° |
| 2026-05-08 23:03 | 23.56850 | -75.00935 | 37052 ft | 493 kts | 116° |
| 2026-05-08 23:04 | 23.53646 | -74.94295 | 37042 ft | 493 kts | 116° |
| 2026-05-08 23:04 | 23.50475 | -74.87721 | 37041 ft | 493 kts | 116° |
| 2026-05-08 23:05 | 23.47297 | -74.81116 | 37050 ft | 492 kts | 116° |
| 2026-05-08 23:05 | 23.44098 | -74.74475 | 37047 ft | 492 kts | 116° |
| 2026-05-08 23:06 | 23.40925 | -74.67912 | 37044 ft | 492 kts | 116° |
| 2026-05-08 23:06 | 23.37733 | -74.61345 | 37044 ft | 492 kts | 116° |
| 2026-05-08 23:07 | 23.34526 | -74.54748 | 37053 ft | 491 kts | 116° |
| 2026-05-08 23:07 | 23.31345 | -74.48197 | 37046 ft | 491 kts | 116° |
| 2026-05-08 23:08 | 23.28152 | -74.41623 | 37046 ft | 491 kts | 116° |
| 2026-05-08 23:08 | 23.24960 | -74.35059 | 37043 ft | 491 kts | 116° |
| 2026-05-08 23:09 | 23.21764 | -74.28507 | 37043 ft | 490 kts | 116° |
| 2026-05-08 23:09 | 23.18564 | -74.21976 | 37051 ft | 490 kts | 116° |
| 2026-05-08 23:10 | 23.15373 | -74.15440 | 37045 ft | 490 kts | 116° |
| 2026-05-08 23:10 | 23.12171 | -74.08887 | 37049 ft | 490 kts | 116° |
| 2026-05-08 23:11 | 23.08963 | -74.02347 | 37045 ft | 490 kts | 116° |
| 2026-05-08 23:11 | 23.05771 | -73.95846 | 37045 ft | 489 kts | 116° |
| 2026-05-08 23:12 | 23.02556 | -73.89317 | 37046 ft | 489 kts | 116° |
| 2026-05-08 23:12 | 22.99344 | -73.82795 | 37047 ft | 489 kts | 116° |
| 2026-05-08 23:13 | 22.96140 | -73.76292 | 37049 ft | 489 kts | 116° |
| 2026-05-08 23:13 | 22.92930 | -73.69786 | 37046 ft | 489 kts | 116° |
| 2026-05-08 23:14 | 22.89740 | -73.63319 | 37050 ft | 489 kts | 116° |
| 2026-05-08 23:14 | 22.86517 | -73.56792 | 37046 ft | 489 kts | 116° |
| 2026-05-08 23:15 | 22.83298 | -73.50295 | 37050 ft | 489 kts | 116° |
| 2026-05-08 23:15 | 22.80071 | -73.43813 | 37050 ft | 489 kts | 116° |
| 2026-05-08 23:16 | 22.76856 | -73.37339 | 37046 ft | 489 kts | 116° |
| 2026-05-08 23:16 | 22.73643 | -73.30862 | 37051 ft | 489 kts | 116° |
| 2026-05-08 23:17 | 22.70412 | -73.24380 | 37049 ft | 489 kts | 116° |
| 2026-05-08 23:17 | 22.67187 | -73.17928 | 37047 ft | 489 kts | 116° |
| 2026-05-08 23:18 | 22.63966 | -73.11457 | 37048 ft | 489 kts | 116° |
| 2026-05-08 23:18 | 22.60717 | -73.04949 | 37044 ft | 489 kts | 116° |
| 2026-05-08 23:19 | 22.57474 | -72.98483 | 37049 ft | 489 kts | 116° |
| 2026-05-08 23:19 | 22.54223 | -72.92000 | 37047 ft | 489 kts | 116° |
| 2026-05-08 23:20 | 22.50999 | -72.85561 | 37044 ft | 489 kts | 116° |
| 2026-05-08 23:20 | 22.47732 | -72.79055 | 37050 ft | 489 kts | 116° |
| 2026-05-08 23:21 | 22.44500 | -72.72631 | 37054 ft | 489 kts | 116° |
| 2026-05-08 23:21 | 22.41230 | -72.66137 | 37052 ft | 490 kts | 116° |
| 2026-05-08 23:22 | 22.37990 | -72.59714 | 37052 ft | 490 kts | 116° |
| 2026-05-08 23:22 | 22.34725 | -72.53240 | 37054 ft | 490 kts | 116° |
| 2026-05-08 23:23 | 22.31455 | -72.46776 | 37052 ft | 490 kts | 116° |
| 2026-05-08 23:23 | 22.28184 | -72.40332 | 37054 ft | 490 kts | 116° |
| 2026-05-08 23:24 | 22.24913 | -72.33875 | 37046 ft | 490 kts | 116° |
| 2026-05-08 23:24 | 22.21648 | -72.27441 | 37053 ft | 490 kts | 116° |
| 2026-05-08 23:25 | 22.18370 | -72.20983 | 37047 ft | 490 kts | 116° |
| 2026-05-08 23:25 | 22.15104 | -72.14571 | 37052 ft | 490 kts | 116° |
| 2026-05-08 23:26 | 22.11827 | -72.08133 | 37053 ft | 490 kts | 116° |
| 2026-05-08 23:26 | 22.08543 | -72.01691 | 37056 ft | 490 kts | 116° |
| 2026-05-08 23:27 | 22.05250 | -71.95251 | 37053 ft | 490 kts | 116° |
| 2026-05-08 23:27 | 22.01949 | -71.88802 | 37054 ft | 490 kts | 116° |
| 2026-05-08 23:28 | 21.98672 | -71.82400 | 37052 ft | 490 kts | 116° |
| 2026-05-08 23:28 | 21.95376 | -71.75968 | 37055 ft | 490 kts | 116° |
| 2026-05-08 23:29 | 21.92069 | -71.69505 | 37052 ft | 490 kts | 116° |
| 2026-05-08 23:29 | 21.88773 | -71.63079 | 37053 ft | 490 kts | 116° |
| 2026-05-08 23:30 | 21.85484 | -71.56694 | 37052 ft | 490 kts | 117° |
| 2026-05-08 23:30 | 21.82174 | -71.50267 | 37051 ft | 490 kts | 118° |
| 2026-05-08 23:31 | 21.78868 | -71.43854 | 37054 ft | 490 kts | 118° |
| 2026-05-08 23:31 | 21.75550 | -71.37439 | 37057 ft | 490 kts | 118° |
| 2026-05-08 23:32 | 21.72236 | -71.31023 | 37058 ft | 490 kts | 118° |
| 2026-05-08 23:32 | 21.68927 | -71.24621 | 37054 ft | 490 kts | 118° |
| 2026-05-08 23:33 | 21.65621 | -71.18228 | 37054 ft | 490 kts | 118° |
| 2026-05-08 23:33 | 21.62306 | -71.11829 | 37057 ft | 490 kts | 118° |
| 2026-05-08 23:34 | 21.58972 | -71.05430 | 37060 ft | 490 kts | 118° |
| 2026-05-08 23:34 | 21.54895 | -70.99564 | 37054 ft | 491 kts | 130° |
| 2026-05-08 23:35 | 21.50407 | -70.94011 | 37055 ft | 491 kts | 130° |
| 2026-05-08 23:35 | 21.45957 | -70.88481 | 37055 ft | 491 kts | 130° |
| 2026-05-08 23:36 | 21.41494 | -70.82944 | 37055 ft | 491 kts | 130° |
| 2026-05-08 23:36 | 21.37035 | -70.77437 | 37056 ft | 491 kts | 130° |
| 2026-05-08 23:37 | 21.32548 | -70.71904 | 37054 ft | 491 kts | 130° |
| 2026-05-08 23:37 | 21.28067 | -70.66383 | 37054 ft | 491 kts | 130° |
| 2026-05-08 23:38 | 21.23581 | -70.60855 | 37056 ft | 491 kts | 130° |
| 2026-05-08 23:38 | 21.19101 | -70.55338 | 37054 ft | 491 kts | 130° |
| 2026-05-08 23:39 | 21.14630 | -70.49837 | 37055 ft | 491 kts | 130° |
| 2026-05-08 23:39 | 21.10130 | -70.44311 | 37052 ft | 491 kts | 130° |
| 2026-05-08 23:40 | 21.05661 | -70.38821 | 37054 ft | 491 kts | 130° |
| 2026-05-08 23:40 | 21.01157 | -70.33295 | 37053 ft | 491 kts | 130° |
| 2026-05-08 23:41 | 20.96685 | -70.27817 | 37051 ft | 491 kts | 130° |
| 2026-05-08 23:41 | 20.92954 | -70.23250 | 37053 ft | 491 kts | 130° |
| 2026-05-08 23:42 | 20.87713 | -70.16844 | 37053 ft | 490 kts | 130° |
| 2026-05-08 23:42 | 20.83964 | -70.12258 | 37054 ft | 490 kts | 130° |
| 2026-05-08 23:43 | 20.79468 | -70.06767 | 37057 ft | 490 kts | 130° |
| 2026-05-08 23:43 | 20.74976 | -70.01292 | 37054 ft | 490 kts | 130° |
| 2026-05-08 23:44 | 20.70482 | -69.95818 | 37054 ft | 490 kts | 130° |
| 2026-05-08 23:44 | 20.65991 | -69.90358 | 37054 ft | 490 kts | 130° |
| 2026-05-08 23:45 | 20.61516 | -69.84914 | 37053 ft | 490 kts | 130° |
| 2026-05-08 23:45 | 20.57024 | -69.79452 | 37055 ft | 489 kts | 131° |
| 2026-05-08 23:46 | 20.52515 | -69.73979 | 37054 ft | 489 kts | 130° |
| 2026-05-08 23:46 | 20.48015 | -69.68528 | 37055 ft | 489 kts | 131° |
| 2026-05-08 23:47 | 20.43506 | -69.63073 | 37055 ft | 489 kts | 130° |
| 2026-05-08 23:47 | 20.39060 | -69.57695 | 37054 ft | 489 kts | 130° |
| 2026-05-08 23:48 | 20.34521 | -69.52211 | 37053 ft | 489 kts | 130° |
| 2026-05-08 23:48 | 20.30032 | -69.46797 | 37054 ft | 489 kts | 130° |
| 2026-05-08 23:49 | 20.25530 | -69.41370 | 37052 ft | 489 kts | 130° |
| 2026-05-08 23:49 | 20.21029 | -69.35937 | 37054 ft | 489 kts | 130° |
| 2026-05-08 23:50 | 20.16521 | -69.30507 | 37049 ft | 489 kts | 130° |
| 2026-05-08 23:50 | 20.12013 | -69.25085 | 37051 ft | 489 kts | 130° |
| 2026-05-08 23:51 | 20.07503 | -69.19663 | 37053 ft | 489 kts | 130° |
| 2026-05-08 23:51 | 20.02988 | -69.14248 | 37051 ft | 489 kts | 130° |
| 2026-05-08 23:52 | 19.98473 | -69.08833 | 37055 ft | 489 kts | 130° |
| 2026-05-08 23:52 | 19.93989 | -69.03455 | 37048 ft | 489 kts | 130° |
| 2026-05-08 23:53 | 19.89475 | -68.98042 | 37049 ft | 490 kts | 130° |
| 2026-05-08 23:53 | 19.84972 | -68.92602 | 37050 ft | 490 kts | 129° |
| 2026-05-08 23:54 | 19.80656 | -68.87008 | 37050 ft | 489 kts | 127° |
| 2026-05-08 23:55 | 19.74302 | -68.78517 | 37053 ft | 490 kts | 127° |
| 2026-05-08 23:55 | 19.70011 | -68.72899 | 37053 ft | 490 kts | 128° |
| 2026-05-08 23:56 | 19.65694 | -68.67305 | 37050 ft | 490 kts | 128° |
| 2026-05-08 23:56 | 19.61372 | -68.61704 | 37049 ft | 490 kts | 128° |
| 2026-05-08 23:57 | 19.57067 | -68.56096 | 37047 ft | 490 kts | 128° |
| 2026-05-08 23:57 | 19.52754 | -68.50492 | 37049 ft | 490 kts | 127° |
| 2026-05-08 23:58 | 19.48455 | -68.44904 | 37634 ft | 479 kts | 128° |
| 2026-05-08 23:58 | 19.46406 | -68.42251 | 38507 ft | 466 kts | 127° |
| 2026-05-08 23:58 | 19.44361 | -68.39604 | 38831 ft | 463 kts | 127° |
| 2026-05-08 23:58 | 19.42321 | -68.36962 | 38994 ft | 463 kts | 127° |
| 2026-05-08 23:59 | 19.40283 | -68.34322 | 39042 ft | 464 kts | 127° |
| 2026-05-08 23:59 | 19.36197 | -68.29024 | 39041 ft | 464 kts | 127° |
| 2026-05-09 00:00 | 19.32110 | -68.23740 | 39043 ft | 464 kts | 127° |
| 2026-05-09 00:00 | 19.28010 | -68.18458 | 39042 ft | 464 kts | 127° |
| 2026-05-09 00:01 | 19.23916 | -68.13178 | 39041 ft | 464 kts | 127° |
| 2026-05-09 00:01 | 19.19821 | -68.07898 | 39047 ft | 464 kts | 127° |
| 2026-05-09 00:02 | 19.15727 | -68.02614 | 39050 ft | 464 kts | 127° |
| 2026-05-09 00:02 | 19.11631 | -67.97342 | 39045 ft | 464 kts | 127° |
| 2026-05-09 00:03 | 19.07559 | -67.92111 | 39045 ft | 464 kts | 127° |
| 2026-05-09 00:03 | 19.03457 | -67.86846 | 39044 ft | 464 kts | 127° |
| 2026-05-09 00:04 | 18.99355 | -67.81574 | 39044 ft | 464 kts | 127° |
| 2026-05-09 00:04 | 18.95256 | -67.76315 | 39043 ft | 463 kts | 127° |
| 2026-05-09 00:05 | 18.91161 | -67.71057 | 39040 ft | 463 kts | 127° |
| 2026-05-09 00:05 | 18.87068 | -67.65806 | 39042 ft | 463 kts | 127° |
| 2026-05-09 00:06 | 18.82970 | -67.60561 | 39042 ft | 463 kts | 127° |
| 2026-05-09 00:06 | 18.78866 | -67.55323 | 39041 ft | 463 kts | 127° |
| 2026-05-09 00:07 | 18.74762 | -67.50092 | 39040 ft | 463 kts | 127° |
| 2026-05-09 00:07 | 18.70668 | -67.44857 | 39042 ft | 463 kts | 127° |
| 2026-05-09 00:08 | 18.66574 | -67.39620 | 39042 ft | 463 kts | 127° |
| 2026-05-09 00:08 | 18.62471 | -67.34393 | 39047 ft | 463 kts | 127° |
| 2026-05-09 00:09 | 18.58362 | -67.29178 | 39054 ft | 463 kts | 127° |
| 2026-05-09 00:09 | 18.54280 | -67.23993 | 39052 ft | 462 kts | 127° |
| 2026-05-09 00:10 | 18.50205 | -67.18757 | 39053 ft | 461 kts | 122° |
| 2026-05-09 00:10 | 18.47343 | -67.12812 | 39056 ft | 454 kts | 107° |
| 2026-05-09 00:11 | 18.45156 | -67.06575 | 39052 ft | 454 kts | 107° |
| 2026-05-09 00:11 | 18.42946 | -67.00337 | 39057 ft | 454 kts | 107° |
| 2026-05-09 00:12 | 18.40735 | -66.94106 | 39053 ft | 454 kts | 107° |
| 2026-05-09 00:12 | 18.38545 | -66.87921 | 39055 ft | 454 kts | 107° |
| 2026-05-09 00:13 | 18.36335 | -66.81699 | 39057 ft | 454 kts | 107° |
| 2026-05-09 00:13 | 18.34121 | -66.75484 | 39060 ft | 454 kts | 107° |
| 2026-05-09 00:14 | 18.31895 | -66.69244 | 39058 ft | 454 kts | 107° |
| 2026-05-09 00:14 | 18.29678 | -66.63023 | 39054 ft | 454 kts | 107° |
| 2026-05-09 00:15 | 18.27472 | -66.56836 | 39052 ft | 454 kts | 107° |
| 2026-05-09 00:15 | 18.25250 | -66.50618 | 39054 ft | 454 kts | 107° |
| 2026-05-09 00:16 | 18.23039 | -66.44424 | 39051 ft | 454 kts | 107° |
| 2026-05-09 00:16 | 18.20807 | -66.38183 | 39051 ft | 454 kts | 107° |
| 2026-05-09 00:17 | 18.18570 | -66.31957 | 39056 ft | 454 kts | 107° |
| 2026-05-09 00:17 | 18.16353 | -66.25775 | 39060 ft | 454 kts | 107° |
| 2026-05-09 00:18 | 18.14125 | -66.19566 | 39056 ft | 454 kts | 107° |
| 2026-05-09 00:18 | 18.11881 | -66.13334 | 39054 ft | 454 kts | 107° |
| 2026-05-09 00:19 | 18.09655 | -66.07160 | 39055 ft | 454 kts | 107° |
| 2026-05-09 00:19 | 18.07409 | -66.00946 | 39051 ft | 454 kts | 107° |
| 2026-05-09 00:20 | 18.05169 | -65.94720 | 39052 ft | 454 kts | 107° |
| 2026-05-09 00:20 | 18.02947 | -65.88554 | 39049 ft | 454 kts | 107° |
| 2026-05-09 00:21 | 18.00695 | -65.82349 | 39050 ft | 454 kts | 107° |
| 2026-05-09 00:21 | 17.98449 | -65.76167 | 39049 ft | 454 kts | 107° |
| 2026-05-09 00:22 | 17.96202 | -65.69964 | 39048 ft | 454 kts | 107° |
| 2026-05-09 00:22 | 17.93948 | -65.63754 | 39050 ft | 454 kts | 107° |
| 2026-05-09 00:23 | 17.91693 | -65.57550 | 39047 ft | 454 kts | 107° |
| 2026-05-09 00:23 | 17.89446 | -65.51351 | 39042 ft | 454 kts | 107° |
| 2026-05-09 00:24 | 17.87190 | -65.45158 | 39047 ft | 454 kts | 107° |
| 2026-05-09 00:24 | 17.84926 | -65.38967 | 39049 ft | 454 kts | 107° |
| 2026-05-09 00:25 | 17.82668 | -65.32777 | 39048 ft | 454 kts | 107° |
| 2026-05-09 00:25 | 17.80413 | -65.26585 | 39051 ft | 454 kts | 107° |
| 2026-05-09 00:26 | 17.78147 | -65.20400 | 39048 ft | 454 kts | 107° |
| 2026-05-09 00:26 | 17.75895 | -65.14257 | 39049 ft | 454 kts | 107° |
| 2026-05-09 00:27 | 17.73623 | -65.08082 | 39052 ft | 454 kts | 107° |
| 2026-05-09 00:27 | 17.71356 | -65.01908 | 39056 ft | 453 kts | 107° |
| 2026-05-09 00:28 | 17.69091 | -64.95734 | 39060 ft | 453 kts | 107° |
| 2026-05-09 00:28 | 17.66825 | -64.89563 | 39060 ft | 453 kts | 107° |
| 2026-05-09 00:29 | 17.64552 | -64.83394 | 39065 ft | 453 kts | 107° |
| 2026-05-09 00:29 | 17.62274 | -64.77241 | 39063 ft | 453 kts | 107° |
| 2026-05-09 00:30 | 17.59997 | -64.71083 | 39061 ft | 452 kts | 107° |
| 2026-05-09 00:30 | 17.57730 | -64.64936 | 39054 ft | 452 kts | 106° |
| 2026-05-09 00:31 | 17.55847 | -64.59835 | 39049 ft | 452 kts | 106° |
| 2026-05-09 00:31 | 17.53581 | -64.53695 | 39048 ft | 451 kts | 106° |
| 2026-05-09 00:32 | 17.51308 | -64.47567 | 39034 ft | 451 kts | 107° |
| 2026-05-09 00:32 | 17.49036 | -64.41437 | 39047 ft | 451 kts | 106° |
| 2026-05-09 00:33 | 17.46742 | -64.35252 | 39043 ft | 460 kts | 107° |
| 2026-05-09 00:33 | 17.44402 | -64.28955 | 39037 ft | 467 kts | 107° |
| 2026-05-09 00:34 | 17.42035 | -64.22602 | 39041 ft | 469 kts | 107° |
| 2026-05-09 00:34 | 17.39662 | -64.16245 | 39043 ft | 469 kts | 107° |
| 2026-05-09 00:35 | 17.37305 | -64.09934 | 39044 ft | 468 kts | 107° |
| 2026-05-09 00:35 | 17.34944 | -64.03580 | 39042 ft | 468 kts | 107° |
| 2026-05-09 00:36 | 17.32575 | -63.97227 | 38984 ft | 469 kts | 107° |
| 2026-05-09 00:36 | 17.31389 | -63.94052 | 38752 ft | 468 kts | 107° |
| 2026-05-09 00:36 | 17.30202 | -63.90880 | 38491 ft | 468 kts | 107° |
| 2026-05-09 00:36 | 17.29010 | -63.87712 | 38223 ft | 467 kts | 107° |
| 2026-05-09 00:37 | 17.27821 | -63.84561 | 37954 ft | 464 kts | 107° |
| 2026-05-09 00:37 | 17.26641 | -63.81430 | 37683 ft | 462 kts | 107° |
| 2026-05-09 00:37 | 17.25466 | -63.78308 | 37245 ft | 459 kts | 107° |
| 2026-05-09 00:37 | 17.24299 | -63.75214 | 36855 ft | 455 kts | 107° |
| 2026-05-09 00:38 | 17.23143 | -63.72142 | 36484 ft | 452 kts | 107° |
| 2026-05-09 00:38 | 17.21997 | -63.69091 | 36111 ft | 449 kts | 107° |
| 2026-05-09 00:38 | 17.20858 | -63.66061 | 35752 ft | 446 kts | 107° |
| 2026-05-09 00:38 | 17.19723 | -63.63049 | 35398 ft | 444 kts | 107° |
| 2026-05-09 00:39 | 17.18599 | -63.60062 | 35053 ft | 441 kts | 107° |
| 2026-05-09 00:39 | 17.17483 | -63.57085 | 34697 ft | 438 kts | 107° |
| 2026-05-09 00:39 | 17.16375 | -63.54126 | 34352 ft | 435 kts | 107° |
| 2026-05-09 00:39 | 17.15273 | -63.51190 | 34016 ft | 433 kts | 108° |
| 2026-05-09 00:40 | 17.14173 | -63.48266 | 33624 ft | 430 kts | 108° |
| 2026-05-09 00:40 | 17.13077 | -63.45361 | 33241 ft | 428 kts | 108° |
| 2026-05-09 00:40 | 17.11985 | -63.42479 | 32864 ft | 425 kts | 108° |
| 2026-05-09 00:41 | 17.09831 | -63.36805 | 32125 ft | 420 kts | 108° |
| 2026-05-09 00:41 | 17.08759 | -63.33974 | 31763 ft | 417 kts | 108° |
| 2026-05-09 00:41 | 17.07695 | -63.31165 | 31405 ft | 415 kts | 108° |
| 2026-05-09 00:41 | 17.06635 | -63.28369 | 31044 ft | 413 kts | 108° |
| 2026-05-09 00:42 | 17.05582 | -63.25590 | 30702 ft | 410 kts | 108° |
| 2026-05-09 00:42 | 17.04533 | -63.22819 | 30359 ft | 408 kts | 108° |
| 2026-05-09 00:42 | 17.03492 | -63.20068 | 30003 ft | 406 kts | 108° |
| 2026-05-09 00:42 | 17.02465 | -63.17348 | 29597 ft | 403 kts | 108° |
| 2026-05-09 00:43 | 17.01432 | -63.14617 | 29199 ft | 399 kts | 108° |
| 2026-05-09 00:43 | 17.00423 | -63.11949 | 28810 ft | 396 kts | 108° |
| 2026-05-09 00:43 | 16.99405 | -63.09261 | 28415 ft | 392 kts | 108° |
| 2026-05-09 00:43 | 16.98416 | -63.06664 | 28036 ft | 389 kts | 108° |
| 2026-05-09 00:44 | 16.97418 | -63.04053 | 27666 ft | 385 kts | 108° |
| 2026-05-09 00:44 | 16.96426 | -63.01459 | 27299 ft | 382 kts | 108° |
| 2026-05-09 00:44 | 16.95423 | -62.98912 | 26935 ft | 379 kts | 110° |
| 2026-05-09 00:44 | 16.94325 | -62.96420 | 26574 ft | 376 kts | 112° |
| 2026-05-09 00:45 | 16.93165 | -62.93979 | 26220 ft | 374 kts | 114° |
| 2026-05-09 00:45 | 16.91985 | -62.91577 | 25865 ft | 370 kts | 114° |
| 2026-05-09 00:45 | 16.90809 | -62.89201 | 25519 ft | 367 kts | 114° |
| 2026-05-09 00:45 | 16.89652 | -62.86839 | 25178 ft | 364 kts | 114° |
| 2026-05-09 00:46 | 16.88513 | -62.84481 | 24845 ft | 361 kts | 114° |
| 2026-05-09 00:46 | 16.87406 | -62.82160 | 24507 ft | 358 kts | 114° |
| 2026-05-09 00:46 | 16.86299 | -62.79823 | 24172 ft | 355 kts | 114° |
| 2026-05-09 00:46 | 16.85216 | -62.77533 | 23851 ft | 352 kts | 114° |
| 2026-05-09 00:47 | 16.84141 | -62.75258 | 23496 ft | 349 kts | 114° |
| 2026-05-09 00:47 | 16.83065 | -62.72981 | 23103 ft | 347 kts | 114° |
| 2026-05-09 00:47 | 16.82001 | -62.70731 | 22727 ft | 346 kts | 114° |
| 2026-05-09 00:47 | 16.80938 | -62.68487 | 22308 ft | 345 kts | 114° |
| 2026-05-09 00:48 | 16.79877 | -62.66251 | 21884 ft | 343 kts | 114° |
| 2026-05-09 00:48 | 16.78818 | -62.64024 | 21468 ft | 342 kts | 114° |
| 2026-05-09 00:48 | 16.77760 | -62.61807 | 21055 ft | 341 kts | 114° |
| 2026-05-09 00:48 | 16.76706 | -62.59597 | 20646 ft | 339 kts | 114° |
| 2026-05-09 00:49 | 16.75657 | -62.57393 | 20248 ft | 338 kts | 114° |
| 2026-05-09 00:49 | 16.74611 | -62.55197 | 19849 ft | 337 kts | 114° |
| 2026-05-09 00:49 | 16.73564 | -62.53006 | 19459 ft | 337 kts | 114° |
| 2026-05-09 00:49 | 16.72523 | -62.50826 | 19068 ft | 336 kts | 114° |
| 2026-05-09 00:50 | 16.71483 | -62.48647 | 18692 ft | 335 kts | 114° |
| 2026-05-09 00:50 | 16.70449 | -62.46476 | 18314 ft | 334 kts | 114° |
| 2026-05-09 00:50 | 16.69417 | -62.44305 | 17895 ft | 334 kts | 114° |
| 2026-05-09 00:50 | 16.68384 | -62.42138 | 17454 ft | 333 kts | 114° |
| 2026-05-09 00:51 | 16.67353 | -62.39977 | 17026 ft | 333 kts | 114° |
| 2026-05-09 00:51 | 16.66333 | -62.37840 | 16611 ft | 333 kts | 114° |
| 2026-05-09 00:51 | 16.65300 | -62.35681 | 16203 ft | 333 kts | 114° |
| 2026-05-09 00:51 | 16.64268 | -62.33521 | 15798 ft | 332 kts | 114° |
| 2026-05-09 00:52 | 16.63239 | -62.31363 | 15388 ft | 332 kts | 114° |
| 2026-05-09 00:52 | 16.62208 | -62.29208 | 14999 ft | 332 kts | 114° |
| 2026-05-09 00:52 | 16.61176 | -62.27056 | 14606 ft | 332 kts | 114° |
| 2026-05-09 00:52 | 16.60143 | -62.24906 | 14221 ft | 331 kts | 114° |
| 2026-05-09 00:53 | 16.59113 | -62.22762 | 13834 ft | 331 kts | 114° |
| 2026-05-09 00:53 | 16.58083 | -62.20610 | 13401 ft | 330 kts | 114° |
| 2026-05-09 00:53 | 16.57066 | -62.18482 | 12975 ft | 329 kts | 114° |
| 2026-05-09 00:53 | 16.56152 | -62.16305 | 12539 ft | 319 kts | 106° |
| 2026-05-09 00:54 | 16.55442 | -62.14158 | 12119 ft | 308 kts | 106° |
| 2026-05-09 00:54 | 16.54746 | -62.12074 | 11711 ft | 302 kts | 106° |
| 2026-05-09 00:54 | 16.54055 | -62.10015 | 11299 ft | 299 kts | 106° |
| 2026-05-09 00:54 | 16.53157 | -62.08057 | 10899 ft | 303 kts | 122° |
| 2026-05-09 00:55 | 16.51907 | -62.06314 | 10506 ft | 304 kts | 124° |
| 2026-05-09 00:55 | 16.50610 | -62.04535 | 10113 ft | 305 kts | 124° |
| 2026-05-09 00:55 | 16.49338 | -62.02800 | 9705 ft | 305 kts | 124° |
| 2026-05-09 00:55 | 16.48054 | -62.01048 | 9267 ft | 304 kts | 124° |
| 2026-05-09 00:56 | 16.46791 | -61.99324 | 8885 ft | 292 kts | 124° |
| 2026-05-09 00:56 | 16.45589 | -61.97684 | 8561 ft | 277 kts | 123° |
| 2026-05-09 00:56 | 16.44436 | -61.96106 | 8251 ft | 272 kts | 123° |
| 2026-05-09 00:56 | 16.43302 | -61.94552 | 7964 ft | 267 kts | 124° |
| 2026-05-09 00:57 | 16.42186 | -61.93023 | 7706 ft | 262 kts | 124° |
| 2026-05-09 00:57 | 16.41091 | -61.91525 | 7445 ft | 258 kts | 124° |
| 2026-05-09 00:57 | 16.40015 | -61.90053 | 7182 ft | 253 kts | 124° |
| 2026-05-09 00:57 | 16.38960 | -61.88609 | 6899 ft | 249 kts | 124° |
| 2026-05-09 00:58 | 16.37920 | -61.87188 | 6616 ft | 245 kts | 124° |
| 2026-05-09 00:58 | 16.36897 | -61.85788 | 6332 ft | 241 kts | 124° |
| 2026-05-09 00:58 | 16.35888 | -61.84408 | 6037 ft | 238 kts | 124° |
| 2026-05-09 00:58 | 16.34893 | -61.83048 | 5750 ft | 234 kts | 124° |
| 2026-05-09 00:59 | 16.33912 | -61.81708 | 5480 ft | 231 kts | 124° |
| 2026-05-09 00:59 | 16.32945 | -61.80389 | 5214 ft | 227 kts | 124° |
| 2026-05-09 00:59 | 16.31992 | -61.79087 | 4947 ft | 224 kts | 124° |
| 2026-05-09 00:59 | 16.31151 | -61.77746 | 4679 ft | 219 kts | 111° |
| 2026-05-09 01:00 | 16.30773 | -61.76233 | 4358 ft | 217 kts | 98° |
| 2026-05-09 01:00 | 16.30499 | -61.74707 | 4010 ft | 208 kts | 99° |
| 2026-05-09 01:00 | 16.30238 | -61.73285 | 3726 ft | 192 kts | 99° |
| 2026-05-09 01:00 | 16.29997 | -61.71977 | 3489 ft | 181 kts | 99° |
| 2026-05-09 01:01 | 16.29766 | -61.70721 | 3227 ft | 172 kts | 99° |
| 2026-05-09 01:01 | 16.29547 | -61.69532 | 2992 ft | 163 kts | 99° |
| 2026-05-09 01:01 | 16.29338 | -61.68393 | 2767 ft | 157 kts | 98° |
| 2026-05-09 01:01 | 16.29141 | -61.67326 | 2572 ft | 145 kts | 98° |
| 2026-05-09 01:02 | 16.28956 | -61.66325 | 2374 ft | 138 kts | 98° |
| 2026-05-09 01:02 | 16.28778 | -61.65356 | 2184 ft | 135 kts | 98° |
| 2026-05-09 01:02 | 16.28601 | -61.64398 | 1993 ft | 136 kts | 97° |
| 2026-05-09 01:02 | 16.28422 | -61.63424 | 1810 ft | 137 kts | 97° |
| 2026-05-09 01:03 | 16.28242 | -61.62449 | 1617 ft | 137 kts | 99° |
| 2026-05-09 01:03 | 16.28064 | -61.61486 | 1423 ft | 134 kts | 98° |
| 2026-05-09 01:03 | 16.27887 | -61.60528 | 1241 ft | 135 kts | 98° |
| 2026-05-09 01:03 | 16.27708 | -61.59559 | 1052 ft | 137 kts | 98° |
| 2026-05-09 01:04 | 16.27529 | -61.58591 | 870 ft | 135 kts | 98° |
| 2026-05-09 01:04 | 16.27346 | -61.57637 | 641 ft | 135 kts | 100° |
| 2026-05-09 01:04 | 16.27171 | -61.56670 | 511 ft | 137 kts | 101° |
| 2026-05-09 01:04 | 16.26997 | -61.55695 | 347 ft | 139 kts | 101° |
| 2026-05-09 01:05 | 16.26818 | -61.54729 | 105 ft | 137 kts | 99° |
| 2026-05-09 01:05 | 16.26646 | -61.53783 | 29 ft | 122 kts | 101° |
| 2026-05-09 01:05 | 16.26435 | -61.52667 | 29 ft | 37 kts | 100° |
| 2026-05-09 01:06 | 16.26391 | -61.52418 | 34 ft | 31 kts | 102° |
| 2026-05-09 01:06 | 16.26385 | -61.52257 | 36 ft | 17 kts | 52° |
| 2026-05-09 01:06 | 16.26501 | -61.52217 | 36 ft | 19 kts | 12° |
| 2026-05-09 01:06 | 16.26638 | -61.52191 | 36 ft | 20 kts | 9° |
| 2026-05-09 01:07 | 16.26732 | -61.52244 | 35 ft | 18 kts | 281° |
| 2026-05-09 01:07 | 16.26755 | -61.52370 | 34 ft | 17 kts | 281° |
| 2026-05-09 01:07 | 16.26772 | -61.52458 | 33 ft | 10 kts | 282° |
| 2026-05-09 01:07 | 16.26793 | -61.52527 | 33 ft | 10 kts | 311° |
| 2026-05-09 01:08 | 16.26853 | -61.52541 | 32 ft | 8 kts | 6° |
| 2026-05-09 01:08 | 16.26881 | -61.52536 | 32 ft | 0 kts | 12° |